Wilsons, Virginia
Current Conditions -  °F | °C
As of 12:15 AM on Friday 31 Oct 2014 (Local Time) from KBKT Reporting Station
Clear Clear  
Wind Chill: 41°   Ceiling: Unl
Heat Index: 45°   Visibility: 10mi
Dew Point: 38°   Wind: 6mph
Humidity: 76%   Direction: 10°N
Pressure: 30.03"   Gusts: NA
Location:  37.14°N, 77.87°W
Report Text: KBKT 310415Z AUTO 01005KT 10SM CLR 07/03 A3003 RMK AO1 T00700031
Loading
Personal Weather Stations






























Interactive Weather Map
Tropical Storm Tracking
New forecast layout! Learn more

10-Day Weather Forecast

Advertisements
Track Severe Weather on mobile